sensor_id;sensor_type;location;lat;lon;timestamp;P1;durP1;ratioP1;P2;durP2;ratioP2
3589;SDS011;1809;48.470;9.226;2023-09-30T00:02:21;13.50;;;6.23;;
3589;SDS011;1809;48.470;9.226;2023-09-30T00:04:47;12.80;;;6.60;;
3589;SDS011;1809;48.470;9.226;2023-09-30T00:07:12;21.90;;;6.57;;
3589;SDS011;1809;48.470;9.226;2023-09-30T00:09:38;14.10;;;6.70;;
3589;SDS011;1809;48.470;9.226;2023-09-30T00:12:03;17.57;;;7.30;;
3589;SDS011;1809;48.470;9.226;2023-09-30T00:14:29;13.50;;;5.10;;
3589;SDS011;1809;48.470;9.226;2023-09-30T00:16:54;11.67;;;5.97;;
3589;SDS011;1809;48.470;9.226;2023-09-30T00:19:20;15.40;;;5.07;;
3589;SDS011;1809;48.470;9.226;2023-09-30T00:21:47;13.17;;;5.60;;
3589;SDS011;1809;48.470;9.226;2023-09-30T00:24:13;11.00;;;5.00;;
3589;SDS011;1809;48.470;9.226;2023-09-30T00:26:38;15.30;;;6.53;;
3589;SDS011;1809;48.470;9.226;2023-09-30T00:29:04;14.50;;;5.90;;
3589;SDS011;1809;48.470;9.226;2023-09-30T00:31:30;12.07;;;5.20;;
3589;SDS011;1809;48.470;9.226;2023-09-30T00:33:56;13.93;;;5.70;;
3589;SDS011;1809;48.470;9.226;2023-09-30T00:36:21;11.03;;;5.07;;
3589;SDS011;1809;48.470;9.226;2023-09-30T00:38:47;13.93;;;5.80;;
3589;SDS011;1809;48.470;9.226;2023-09-30T00:41:12;15.90;;;5.47;;
3589;SDS011;1809;48.470;9.226;2023-09-30T00:43:38;13.10;;;5.77;;
3589;SDS011;1809;48.470;9.226;2023-09-30T00:46:06;11.33;;;5.00;;
3589;SDS011;1809;48.470;9.226;2023-09-30T00:48:50;10.43;;;5.10;;
3589;SDS011;1809;48.470;9.226;2023-09-30T00:51:16;12.67;;;5.47;;
3589;SDS011;1809;48.470;9.226;2023-09-30T00:53:42;10.80;;;4.50;;
3589;SDS011;1809;48.470;9.226;2023-09-30T00:56:08;12.60;;;5.17;;
3589;SDS011;1809;48.470;9.226;2023-09-30T00:58:35;11.03;;;5.33;;
3589;SDS011;1809;48.470;9.226;2023-09-30T01:01:03;12.53;;;5.67;;
3589;SDS011;1809;48.470;9.226;2023-09-30T01:03:29;12.73;;;5.90;;
3589;SDS011;1809;48.470;9.226;2023-09-30T01:05:54;11.33;;;4.90;;
3589;SDS011;1809;48.470;9.226;2023-09-30T01:08:20;12.53;;;5.83;;
3589;SDS011;1809;48.470;9.226;2023-09-30T01:10:46;12.03;;;5.93;;
3589;SDS011;1809;48.470;9.226;2023-09-30T01:13:12;13.33;;;5.70;;
3589;SDS011;1809;48.470;9.226;2023-09-30T01:15:37;15.17;;;5.90;;
3589;SDS011;1809;48.470;9.226;2023-09-30T01:18:03;15.90;;;6.50;;
3589;SDS011;1809;48.470;9.226;2023-09-30T01:20:29;10.97;;;5.30;;
3589;SDS011;1809;48.470;9.226;2023-09-30T01:22:54;13.37;;;5.53;;
3589;SDS011;1809;48.470;9.226;2023-09-30T01:25:22;13.63;;;5.80;;
3589;SDS011;1809;48.470;9.226;2023-09-30T01:27:47;10.93;;;5.67;;
3589;SDS011;1809;48.470;9.226;2023-09-30T01:30:13;19.73;;;6.20;;
3589;SDS011;1809;48.470;9.226;2023-09-30T01:32:38;12.50;;;4.90;;
3589;SDS011;1809;48.470;9.226;2023-09-30T01:35:04;11.77;;;5.90;;
3589;SDS011;1809;48.470;9.226;2023-09-30T01:37:30;15.43;;;6.00;;
3589;SDS011;1809;48.470;9.226;2023-09-30T01:39:56;18.50;;;6.17;;
3589;SDS011;1809;48.470;9.226;2023-09-30T01:42:21;11.90;;;5.20;;
3589;SDS011;1809;48.470;9.226;2023-09-30T01:44:46;9.20;;;4.33;;
3589;SDS011;1809;48.470;9.226;2023-09-30T01:47:12;15.70;;;5.60;;
3589;SDS011;1809;48.470;9.226;2023-09-30T01:49:37;11.40;;;4.80;;
3589;SDS011;1809;48.470;9.226;2023-09-30T01:52:03;14.07;;;5.17;;
3589;SDS011;1809;48.470;9.226;2023-09-30T01:54:28;7.30;;;4.50;;
3589;SDS011;1809;48.470;9.226;2023-09-30T01:56:54;14.23;;;5.73;;
3589;SDS011;1809;48.470;9.226;2023-09-30T01:59:19;8.60;;;4.70;;
3589;SDS011;1809;48.470;9.226;2023-09-30T02:01:44;16.13;;;5.30;;
3589;SDS011;1809;48.470;9.226;2023-09-30T02:04:11;8.70;;;4.83;;
3589;SDS011;1809;48.470;9.226;2023-09-30T02:06:37;13.70;;;5.33;;
3589;SDS011;1809;48.470;9.226;2023-09-30T02:09:03;14.87;;;5.70;;
3589;SDS011;1809;48.470;9.226;2023-09-30T02:11:29;8.60;;;4.43;;
3589;SDS011;1809;48.470;9.226;2023-09-30T02:13:55;9.70;;;4.60;;
3589;SDS011;1809;48.470;9.226;2023-09-30T02:16:20;9.53;;;4.70;;
3589;SDS011;1809;48.470;9.226;2023-09-30T02:18:46;14.53;;;5.50;;
3589;SDS011;1809;48.470;9.226;2023-09-30T02:21:12;8.23;;;4.50;;
3589;SDS011;1809;48.470;9.226;2023-09-30T02:23:37;10.20;;;4.50;;
3589;SDS011;1809;48.470;9.226;2023-09-30T02:26:03;10.83;;;5.00;;
3589;SDS011;1809;48.470;9.226;2023-09-30T02:28:28;11.10;;;5.50;;
3589;SDS011;1809;48.470;9.226;2023-09-30T02:30:57;11.00;;;5.33;;
3589;SDS011;1809;48.470;9.226;2023-09-30T02:33:22;12.40;;;5.43;;
3589;SDS011;1809;48.470;9.226;2023-09-30T02:35:47;14.20;;;5.63;;
3589;SDS011;1809;48.470;9.226;2023-09-30T02:38:14;8.13;;;4.27;;
3589;SDS011;1809;48.470;9.226;2023-09-30T02:40:41;13.73;;;5.00;;
3589;SDS011;1809;48.470;9.226;2023-09-30T02:43:10;11.23;;;4.97;;
3589;SDS011;1809;48.470;9.226;2023-09-30T02:45:35;13.27;;;5.27;;
3589;SDS011;1809;48.470;9.226;2023-09-30T02:48:00;12.53;;;5.40;;
3589;SDS011;1809;48.470;9.226;2023-09-30T02:50:26;12.43;;;4.50;;
3589;SDS011;1809;48.470;9.226;2023-09-30T02:52:51;12.53;;;5.00;;
3589;SDS011;1809;48.470;9.226;2023-09-30T02:55:17;17.30;;;5.00;;
3589;SDS011;1809;48.470;9.226;2023-09-30T02:57:42;10.73;;;4.73;;
3589;SDS011;1809;48.470;9.226;2023-09-30T03:00:08;11.87;;;4.60;;
3589;SDS011;1809;48.470;9.226;2023-09-30T03:02:57;10.80;;;4.30;;
3589;SDS011;1809;48.470;9.226;2023-09-30T03:05:22;15.27;;;4.23;;
3589;SDS011;1809;48.470;9.226;2023-09-30T03:07:48;11.50;;;4.87;;
3589;SDS011;1809;48.470;9.226;2023-09-30T03:10:17;11.40;;;4.70;;
3589;SDS011;1809;48.470;9.226;2023-09-30T03:12:46;10.40;;;5.20;;
3589;SDS011;1809;48.470;9.226;2023-09-30T03:15:12;8.77;;;4.80;;
3589;SDS011;1809;48.470;9.226;2023-09-30T03:17:38;7.90;;;3.87;;
3589;SDS011;1809;48.470;9.226;2023-09-30T03:20:03;8.17;;;4.13;;
3589;SDS011;1809;48.470;9.226;2023-09-30T03:22:40;10.77;;;4.83;;
3589;SDS011;1809;48.470;9.226;2023-09-30T03:25:12;12.30;;;5.00;;
3589;SDS011;1809;48.470;9.226;2023-09-30T03:27:40;11.33;;;5.60;;
3589;SDS011;1809;48.470;9.226;2023-09-30T03:30:06;11.07;;;5.90;;
3589;SDS011;1809;48.470;9.226;2023-09-30T03:32:32;9.00;;;4.40;;
3589;SDS011;1809;48.470;9.226;2023-09-30T03:35:07;10.97;;;4.73;;
3589;SDS011;1809;48.470;9.226;2023-09-30T03:37:36;14.70;;;5.37;;
3589;SDS011;1809;48.470;9.226;2023-09-30T03:40:02;11.10;;;4.90;;
3589;SDS011;1809;48.470;9.226;2023-09-30T03:42:36;11.33;;;5.37;;
3589;SDS011;1809;48.470;9.226;2023-09-30T03:45:03;9.07;;;4.47;;
3589;SDS011;1809;48.470;9.226;2023-09-30T03:47:29;9.73;;;4.33;;
3589;SDS011;1809;48.470;9.226;2023-09-30T03:49:56;9.60;;;4.87;;
3589;SDS011;1809;48.470;9.226;2023-09-30T03:52:24;13.87;;;4.43;;
3589;SDS011;1809;48.470;9.226;2023-09-30T03:54:50;9.33;;;3.70;;
3589;SDS011;1809;48.470;9.226;2023-09-30T03:57:16;11.67;;;4.53;;
3589;SDS011;1809;48.470;9.226;2023-09-30T03:59:41;9.57;;;5.37;;
3589;SDS011;1809;48.470;9.226;2023-09-30T04:02:07;10.20;;;4.77;;
3589;SDS011;1809;48.470;9.226;2023-09-30T04:04:33;12.33;;;5.30;;
3589;SDS011;1809;48.470;9.226;2023-09-30T04:06:59;7.97;;;4.20;;
3589;SDS011;1809;48.470;9.226;2023-09-30T04:09:24;13.67;;;4.60;;
3589;SDS011;1809;48.470;9.226;2023-09-30T04:11:50;9.70;;;4.70;;
3589;SDS011;1809;48.470;9.226;2023-09-30T04:14:16;10.97;;;4.93;;
3589;SDS011;1809;48.470;9.226;2023-09-30T04:16:42;10.27;;;4.23;;
3589;SDS011;1809;48.470;9.226;2023-09-30T04:19:08;8.63;;;4.43;;
3589;SDS011;1809;48.470;9.226;2023-09-30T04:21:35;8.27;;;4.40;;
3589;SDS011;1809;48.470;9.226;2023-09-30T04:24:03;12.87;;;5.33;;
3589;SDS011;1809;48.470;9.226;2023-09-30T04:26:29;8.83;;;4.27;;
3589;SDS011;1809;48.470;9.226;2023-09-30T04:28:55;11.33;;;4.93;;
3589;SDS011;1809;48.470;9.226;2023-09-30T04:31:20;9.00;;;4.47;;
3589;SDS011;1809;48.470;9.226;2023-09-30T04:33:49;10.10;;;5.00;;
3589;SDS011;1809;48.470;9.226;2023-09-30T04:36:18;11.70;;;4.63;;
3589;SDS011;1809;48.470;9.226;2023-09-30T04:38:44;7.50;;;4.07;;
3589;SDS011;1809;48.470;9.226;2023-09-30T04:41:09;9.87;;;4.90;;
3589;SDS011;1809;48.470;9.226;2023-09-30T04:43:35;9.00;;;4.13;;
3589;SDS011;1809;48.470;9.226;2023-09-30T04:46:03;9.03;;;5.47;;
3589;SDS011;1809;48.470;9.226;2023-09-30T04:48:29;8.40;;;4.40;;
3589;SDS011;1809;48.470;9.226;2023-09-30T04:50:54;9.50;;;4.73;;
3589;SDS011;1809;48.470;9.226;2023-09-30T04:53:20;11.03;;;4.80;;
3589;SDS011;1809;48.470;9.226;2023-09-30T04:55:46;11.23;;;5.80;;
3589;SDS011;1809;48.470;9.226;2023-09-30T04:58:12;10.10;;;4.20;;
3589;SDS011;1809;48.470;9.226;2023-09-30T05:00:38;7.27;;;3.70;;
3589;SDS011;1809;48.470;9.226;2023-09-30T05:03:04;6.53;;;3.60;;
3589;SDS011;1809;48.470;9.226;2023-09-30T05:05:30;12.60;;;5.50;;
3589;SDS011;1809;48.470;9.226;2023-09-30T05:07:55;9.00;;;4.10;;
3589;SDS011;1809;48.470;9.226;2023-09-30T05:10:22;8.23;;;4.10;;
3589;SDS011;1809;48.470;9.226;2023-09-30T05:12:49;12.40;;;5.30;;
3589;SDS011;1809;48.470;9.226;2023-09-30T05:15:15;7.73;;;4.27;;
3589;SDS011;1809;48.470;9.226;2023-09-30T05:17:47;8.53;;;4.73;;
3589;SDS011;1809;48.470;9.226;2023-09-30T05:20:14;13.40;;;5.93;;
3589;SDS011;1809;48.470;9.226;2023-09-30T05:22:42;8.00;;;4.63;;
3589;SDS011;1809;48.470;9.226;2023-09-30T05:25:10;12.90;;;4.87;;
3589;SDS011;1809;48.470;9.226;2023-09-30T05:27:36;12.17;;;5.40;;
3589;SDS011;1809;48.470;9.226;2023-09-30T05:30:02;13.80;;;5.40;;
3589;SDS011;1809;48.470;9.226;2023-09-30T05:32:29;12.73;;;5.10;;
3589;SDS011;1809;48.470;9.226;2023-09-30T05:34:55;12.73;;;5.10;;
3589;SDS011;1809;48.470;9.226;2023-09-30T05:37:21;11.10;;;5.37;;
3589;SDS011;1809;48.470;9.226;2023-09-30T05:39:49;9.27;;;4.50;;
3589;SDS011;1809;48.470;9.226;2023-09-30T05:42:15;8.50;;;4.23;;
3589;SDS011;1809;48.470;9.226;2023-09-30T05:44:41;11.70;;;5.50;;
3589;SDS011;1809;48.470;9.226;2023-09-30T05:47:08;11.33;;;5.10;;
3589;SDS011;1809;48.470;9.226;2023-09-30T05:49:33;11.50;;;5.80;;
3589;SDS011;1809;48.470;9.226;2023-09-30T05:51:59;16.63;;;6.30;;
3589;SDS011;1809;48.470;9.226;2023-09-30T05:54:24;16.33;;;5.33;;
3589;SDS011;1809;48.470;9.226;2023-09-30T05:56:50;12.40;;;5.33;;
3589;SDS011;1809;48.470;9.226;2023-09-30T05:59:15;10.00;;;5.83;;
3589;SDS011;1809;48.470;9.226;2023-09-30T06:01:41;14.30;;;5.70;;
3589;SDS011;1809;48.470;9.226;2023-09-30T06:04:07;12.97;;;5.17;;
3589;SDS011;1809;48.470;9.226;2023-09-30T06:06:33;13.80;;;5.03;;
3589;SDS011;1809;48.470;9.226;2023-09-30T06:08:59;12.83;;;5.13;;
3589;SDS011;1809;48.470;9.226;2023-09-30T06:11:24;8.80;;;5.10;;
3589;SDS011;1809;48.470;9.226;2023-09-30T06:13:56;8.53;;;4.13;;
3589;SDS011;1809;48.470;9.226;2023-09-30T06:16:26;13.03;;;4.87;;
3589;SDS011;1809;48.470;9.226;2023-09-30T06:18:52;9.47;;;4.67;;
3589;SDS011;1809;48.470;9.226;2023-09-30T06:21:18;9.60;;;5.53;;
3589;SDS011;1809;48.470;9.226;2023-09-30T06:23:46;11.87;;;5.50;;
3589;SDS011;1809;48.470;9.226;2023-09-30T06:26:15;8.57;;;4.60;;
3589;SDS011;1809;48.470;9.226;2023-09-30T06:28:42;7.20;;;4.27;;
3589;SDS011;1809;48.470;9.226;2023-09-30T06:31:07;9.90;;;4.70;;
3589;SDS011;1809;48.470;9.226;2023-09-30T06:33:34;10.97;;;4.87;;
3589;SDS011;1809;48.470;9.226;2023-09-30T06:36:01;6.73;;;4.80;;
3589;SDS011;1809;48.470;9.226;2023-09-30T06:38:35;9.97;;;4.80;;
3589;SDS011;1809;48.470;9.226;2023-09-30T06:41:02;10.03;;;5.33;;
3589;SDS011;1809;48.470;9.226;2023-09-30T06:43:27;10.30;;;5.20;;
3589;SDS011;1809;48.470;9.226;2023-09-30T06:45:53;12.60;;;5.97;;
3589;SDS011;1809;48.470;9.226;2023-09-30T06:48:19;20.23;;;6.73;;
3589;SDS011;1809;48.470;9.226;2023-09-30T06:53:11;15.90;;;6.17;;
3589;SDS011;1809;48.470;9.226;2023-09-30T06:55:37;13.07;;;6.40;;
3589;SDS011;1809;48.470;9.226;2023-09-30T06:58:05;13.13;;;6.80;;
3589;SDS011;1809;48.470;9.226;2023-09-30T07:00:32;10.70;;;5.90;;
3589;SDS011;1809;48.470;9.226;2023-09-30T07:02:59;18.57;;;6.30;;
3589;SDS011;1809;48.470;9.226;2023-09-30T07:05:24;15.50;;;6.70;;
3589;SDS011;1809;48.470;9.226;2023-09-30T07:07:50;12.63;;;5.70;;
3589;SDS011;1809;48.470;9.226;2023-09-30T07:10:16;10.03;;;6.23;;
3589;SDS011;1809;48.470;9.226;2023-09-30T07:12:41;12.70;;;5.83;;
3589;SDS011;1809;48.470;9.226;2023-09-30T07:15:07;11.27;;;5.63;;
3589;SDS011;1809;48.470;9.226;2023-09-30T07:17:33;11.33;;;6.40;;
3589;SDS011;1809;48.470;9.226;2023-09-30T07:19:59;11.77;;;5.90;;
3589;SDS011;1809;48.470;9.226;2023-09-30T07:22:24;10.27;;;5.60;;
3589;SDS011;1809;48.470;9.226;2023-09-30T07:24:50;9.50;;;4.90;;
3589;SDS011;1809;48.470;9.226;2023-09-30T07:27:16;11.93;;;6.17;;
3589;SDS011;1809;48.470;9.226;2023-09-30T07:29:41;14.67;;;7.20;;
3589;SDS011;1809;48.470;9.226;2023-09-30T07:32:07;10.77;;;5.70;;
3589;SDS011;1809;48.470;9.226;2023-09-30T07:34:34;10.23;;;5.43;;
3589;SDS011;1809;48.470;9.226;2023-09-30T07:36:59;11.40;;;6.33;;
3589;SDS011;1809;48.470;9.226;2023-09-30T07:39:25;8.77;;;5.30;;
3589;SDS011;1809;48.470;9.226;2023-09-30T07:41:50;10.97;;;6.20;;
3589;SDS011;1809;48.470;9.226;2023-09-30T07:44:15;10.20;;;4.23;;
3589;SDS011;1809;48.470;9.226;2023-09-30T07:46:41;9.03;;;5.80;;
3589;SDS011;1809;48.470;9.226;2023-09-30T07:49:08;8.80;;;5.73;;
3589;SDS011;1809;48.470;9.226;2023-09-30T07:51:34;9.73;;;6.30;;
3589;SDS011;1809;48.470;9.226;2023-09-30T07:54:00;9.80;;;5.10;;
3589;SDS011;1809;48.470;9.226;2023-09-30T07:56:26;11.60;;;6.10;;
3589;SDS011;1809;48.470;9.226;2023-09-30T07:58:51;10.43;;;4.40;;
3589;SDS011;1809;48.470;9.226;2023-09-30T08:01:17;7.47;;;4.63;;
3589;SDS011;1809;48.470;9.226;2023-09-30T08:03:43;13.40;;;5.43;;
3589;SDS011;1809;48.470;9.226;2023-09-30T08:06:08;6.57;;;4.40;;
3589;SDS011;1809;48.470;9.226;2023-09-30T08:08:34;8.47;;;4.53;;
3589;SDS011;1809;48.470;9.226;2023-09-30T08:11:00;9.60;;;4.50;;
3589;SDS011;1809;48.470;9.226;2023-09-30T08:13:25;6.43;;;5.03;;
3589;SDS011;1809;48.470;9.226;2023-09-30T08:15:51;8.43;;;4.87;;
3589;SDS011;1809;48.470;9.226;2023-09-30T08:18:17;13.23;;;5.63;;
3589;SDS011;1809;48.470;9.226;2023-09-30T08:20:42;10.77;;;5.57;;
3589;SDS011;1809;48.470;9.226;2023-09-30T08:23:08;11.77;;;5.27;;
3589;SDS011;1809;48.470;9.226;2023-09-30T08:25:34;14.10;;;6.53;;
3589;SDS011;1809;48.470;9.226;2023-09-30T08:27:59;10.37;;;6.07;;
3589;SDS011;1809;48.470;9.226;2023-09-30T08:30:25;8.00;;;5.10;;
3589;SDS011;1809;48.470;9.226;2023-09-30T08:32:51;8.23;;;5.50;;
3589;SDS011;1809;48.470;9.226;2023-09-30T08:35:16;8.73;;;5.73;;
3589;SDS011;1809;48.470;9.226;2023-09-30T08:37:41;12.70;;;6.13;;
3589;SDS011;1809;48.470;9.226;2023-09-30T08:40:07;12.03;;;5.80;;
3589;SDS011;1809;48.470;9.226;2023-09-30T08:42:34;11.90;;;5.10;;
3589;SDS011;1809;48.470;9.226;2023-09-30T08:45:00;9.87;;;5.70;;
3589;SDS011;1809;48.470;9.226;2023-09-30T08:47:26;8.30;;;5.47;;
3589;SDS011;1809;48.470;9.226;2023-09-30T08:49:53;10.03;;;4.70;;
3589;SDS011;1809;48.470;9.226;2023-09-30T08:52:22;8.47;;;4.90;;
3589;SDS011;1809;48.470;9.226;2023-09-30T08:54:48;9.80;;;6.53;;
3589;SDS011;1809;48.470;9.226;2023-09-30T08:57:13;6.37;;;4.83;;
3589;SDS011;1809;48.470;9.226;2023-09-30T08:59:42;8.67;;;6.10;;
3589;SDS011;1809;48.470;9.226;2023-09-30T09:02:09;6.03;;;5.27;;
3589;SDS011;1809;48.470;9.226;2023-09-30T09:04:35;7.93;;;5.00;;
3589;SDS011;1809;48.470;9.226;2023-09-30T09:07:01;8.80;;;5.23;;
3589;SDS011;1809;48.470;9.226;2023-09-30T09:09:27;7.20;;;5.10;;
3589;SDS011;1809;48.470;9.226;2023-09-30T09:11:53;8.83;;;5.10;;
3589;SDS011;1809;48.470;9.226;2023-09-30T09:14:18;10.03;;;6.23;;
3589;SDS011;1809;48.470;9.226;2023-09-30T09:16:53;10.33;;;6.33;;
3589;SDS011;1809;48.470;9.226;2023-09-30T09:19:20;7.57;;;4.90;;
3589;SDS011;1809;48.470;9.226;2023-09-30T09:21:57;10.10;;;5.90;;
3589;SDS011;1809;48.470;9.226;2023-09-30T09:24:36;9.87;;;6.27;;
3589;SDS011;1809;48.470;9.226;2023-09-30T09:27:11;8.60;;;5.63;;
3589;SDS011;1809;48.470;9.226;2023-09-30T09:29:39;11.13;;;6.17;;
3589;SDS011;1809;48.470;9.226;2023-09-30T09:34:37;6.77;;;4.67;;
3589;SDS011;1809;48.470;9.226;2023-09-30T09:37:13;8.20;;;5.47;;
3589;SDS011;1809;48.470;9.226;2023-09-30T09:39:39;11.90;;;6.30;;
3589;SDS011;1809;48.470;9.226;2023-09-30T09:42:04;12.90;;;5.07;;
3589;SDS011;1809;48.470;9.226;2023-09-30T09:44:31;8.33;;;5.53;;
3589;SDS011;1809;48.470;9.226;2023-09-30T09:47:01;7.37;;;5.10;;
3589;SDS011;1809;48.470;9.226;2023-09-30T09:49:30;7.27;;;5.00;;
3589;SDS011;1809;48.470;9.226;2023-09-30T09:51:57;7.77;;;4.83;;
3589;SDS011;1809;48.470;9.226;2023-09-30T09:54:23;9.63;;;5.27;;
3589;SDS011;1809;48.470;9.226;2023-09-30T09:56:49;8.17;;;5.87;;
3589;SDS011;1809;48.470;9.226;2023-09-30T09:59:18;5.93;;;4.70;;
3589;SDS011;1809;48.470;9.226;2023-09-30T10:01:44;11.60;;;4.80;;
3589;SDS011;1809;48.470;9.226;2023-09-30T10:04:12;9.23;;;5.37;;
3589;SDS011;1809;48.470;9.226;2023-09-30T10:06:41;9.40;;;6.00;;
3589;SDS011;1809;48.470;9.226;2023-09-30T10:09:11;7.80;;;4.70;;
3589;SDS011;1809;48.470;9.226;2023-09-30T10:11:39;10.10;;;6.17;;
3589;SDS011;1809;48.470;9.226;2023-09-30T10:14:07;7.00;;;4.70;;
3589;SDS011;1809;48.470;9.226;2023-09-30T10:21:33;10.67;;;5.73;;
3589;SDS011;1809;48.470;9.226;2023-09-30T10:33:07;10.20;;;6.30;;
3589;SDS011;1809;48.470;9.226;2023-09-30T10:35:18;9.97;;;5.73;;
3589;SDS011;1809;48.470;9.226;2023-09-30T10:40:47;10.23;;;6.27;;
3589;SDS011;1809;48.470;9.226;2023-09-30T10:43:32;13.10;;;6.57;;
3589;SDS011;1809;48.470;9.226;2023-09-30T10:45:57;13.70;;;7.83;;
3589;SDS011;1809;48.470;9.226;2023-09-30T10:51:10;13.77;;;7.37;;
3589;SDS011;1809;48.470;9.226;2023-09-30T10:56:11;13.13;;;6.83;;
3589;SDS011;1809;48.470;9.226;2023-09-30T10:58:44;13.73;;;7.30;;
3589;SDS011;1809;48.470;9.226;2023-09-30T11:01:22;17.07;;;7.43;;
3589;SDS011;1809;48.470;9.226;2023-09-30T11:03:49;10.60;;;7.00;;
3589;SDS011;1809;48.470;9.226;2023-09-30T11:06:19;14.80;;;7.43;;
3589;SDS011;1809;48.470;9.226;2023-09-30T11:11:18;14.27;;;7.70;;
3589;SDS011;1809;48.470;9.226;2023-09-30T11:13:44;12.00;;;6.43;;
3589;SDS011;1809;48.470;9.226;2023-09-30T11:16:09;11.30;;;6.93;;
3589;SDS011;1809;48.470;9.226;2023-09-30T11:18:34;15.80;;;8.27;;
3589;SDS011;1809;48.470;9.226;2023-09-30T11:21:03;11.03;;;7.30;;
3589;SDS011;1809;48.470;9.226;2023-09-30T11:23:30;12.07;;;6.87;;
3589;SDS011;1809;48.470;9.226;2023-09-30T11:25:57;15.00;;;7.87;;
3589;SDS011;1809;48.470;9.226;2023-09-30T11:28:22;14.40;;;7.07;;
3589;SDS011;1809;48.470;9.226;2023-09-30T11:30:57;17.63;;;9.27;;
3589;SDS011;1809;48.470;9.226;2023-09-30T11:33:24;18.43;;;9.90;;
3589;SDS011;1809;48.470;9.226;2023-09-30T11:36:03;14.13;;;8.53;;
3589;SDS011;1809;48.470;9.226;2023-09-30T11:38:31;20.33;;;9.53;;
3589;SDS011;1809;48.470;9.226;2023-09-30T11:40:59;16.40;;;9.13;;
3589;SDS011;1809;48.470;9.226;2023-09-30T11:43:27;16.07;;;8.37;;
3589;SDS011;1809;48.470;9.226;2023-09-30T11:46:03;22.77;;;10.97;;
3589;SDS011;1809;48.470;9.226;2023-09-30T11:48:33;15.50;;;9.60;;
3589;SDS011;1809;48.470;9.226;2023-09-30T11:51:00;19.70;;;8.53;;
3589;SDS011;1809;48.470;9.226;2023-09-30T11:53:28;15.67;;;8.60;;
3589;SDS011;1809;48.470;9.226;2023-09-30T11:55:55;16.30;;;8.57;;
3589;SDS011;1809;48.470;9.226;2023-09-30T11:58:30;14.00;;;8.00;;
3589;SDS011;1809;48.470;9.226;2023-09-30T12:00:57;14.37;;;7.67;;
3589;SDS011;1809;48.470;9.226;2023-09-30T12:03:24;16.87;;;9.33;;
3589;SDS011;1809;48.470;9.226;2023-09-30T12:05:52;19.00;;;9.47;;
3589;SDS011;1809;48.470;9.226;2023-09-30T12:08:20;21.53;;;10.07;;
3589;SDS011;1809;48.470;9.226;2023-09-30T12:10:48;16.90;;;9.60;;
3589;SDS011;1809;48.470;9.226;2023-09-30T12:13:14;16.30;;;9.43;;
3589;SDS011;1809;48.470;9.226;2023-09-30T12:15:40;22.10;;;10.10;;
3589;SDS011;1809;48.470;9.226;2023-09-30T12:18:05;28.03;;;10.17;;
3589;SDS011;1809;48.470;9.226;2023-09-30T12:20:31;18.03;;;9.23;;
3589;SDS011;1809;48.470;9.226;2023-09-30T12:22:56;17.97;;;8.83;;
3589;SDS011;1809;48.470;9.226;2023-09-30T12:25:22;21.33;;;10.03;;
3589;SDS011;1809;48.470;9.226;2023-09-30T12:27:48;17.90;;;8.80;;
3589;SDS011;1809;48.470;9.226;2023-09-30T12:30:13;19.73;;;8.63;;
3589;SDS011;1809;48.470;9.226;2023-09-30T12:32:39;16.40;;;8.30;;
3589;SDS011;1809;48.470;9.226;2023-09-30T12:35:05;16.60;;;8.97;;
3589;SDS011;1809;48.470;9.226;2023-09-30T12:37:31;16.03;;;7.70;;
3589;SDS011;1809;48.470;9.226;2023-09-30T12:39:57;15.37;;;8.00;;
3589;SDS011;1809;48.470;9.226;2023-09-30T12:42:23;15.47;;;8.73;;
3589;SDS011;1809;48.470;9.226;2023-09-30T12:44:48;22.50;;;9.50;;
3589;SDS011;1809;48.470;9.226;2023-09-30T12:47:13;19.90;;;8.83;;
3589;SDS011;1809;48.470;9.226;2023-09-30T12:49:39;15.90;;;8.30;;
3589;SDS011;1809;48.470;9.226;2023-09-30T12:52:04;15.50;;;7.43;;
3589;SDS011;1809;48.470;9.226;2023-09-30T12:54:29;15.00;;;8.30;;
3589;SDS011;1809;48.470;9.226;2023-09-30T12:56:55;12.20;;;7.33;;
3589;SDS011;1809;48.470;9.226;2023-09-30T12:59:20;13.40;;;7.80;;
3589;SDS011;1809;48.470;9.226;2023-09-30T13:01:49;15.27;;;8.03;;
3589;SDS011;1809;48.470;9.226;2023-09-30T13:04:15;15.07;;;7.40;;
3589;SDS011;1809;48.470;9.226;2023-09-30T13:06:40;14.17;;;7.77;;
3589;SDS011;1809;48.470;9.226;2023-09-30T13:09:06;15.67;;;8.80;;
3589;SDS011;1809;48.470;9.226;2023-09-30T13:11:33;20.13;;;9.97;;
3589;SDS011;1809;48.470;9.226;2023-09-30T13:13:59;13.37;;;8.30;;
3589;SDS011;1809;48.470;9.226;2023-09-30T13:16:24;15.27;;;8.30;;
3589;SDS011;1809;48.470;9.226;2023-09-30T13:18:49;15.70;;;8.87;;
3589;SDS011;1809;48.470;9.226;2023-09-30T13:21:17;13.47;;;7.87;;
3589;SDS011;1809;48.470;9.226;2023-09-30T13:23:43;16.40;;;7.70;;
3589;SDS011;1809;48.470;9.226;2023-09-30T13:26:08;12.77;;;8.10;;
3589;SDS011;1809;48.470;9.226;2023-09-30T13:28:34;16.20;;;9.30;;
3589;SDS011;1809;48.470;9.226;2023-09-30T13:30:59;15.03;;;7.73;;
3589;SDS011;1809;48.470;9.226;2023-09-30T13:33:25;14.60;;;7.63;;
3589;SDS011;1809;48.470;9.226;2023-09-30T13:35:50;15.10;;;8.07;;
3589;SDS011;1809;48.470;9.226;2023-09-30T13:38:15;15.20;;;8.07;;
3589;SDS011;1809;48.470;9.226;2023-09-30T13:40:41;15.17;;;7.73;;
3589;SDS011;1809;48.470;9.226;2023-09-30T13:43:06;16.33;;;8.60;;
3589;SDS011;1809;48.470;9.226;2023-09-30T13:45:32;15.07;;;8.20;;
3589;SDS011;1809;48.470;9.226;2023-09-30T13:47:57;16.53;;;8.00;;
3589;SDS011;1809;48.470;9.226;2023-09-30T13:50:23;19.33;;;8.53;;
3589;SDS011;1809;48.470;9.226;2023-09-30T13:52:48;15.87;;;8.07;;
3589;SDS011;1809;48.470;9.226;2023-09-30T13:55:13;15.47;;;8.20;;
3589;SDS011;1809;48.470;9.226;2023-09-30T13:57:44;13.03;;;6.93;;
3589;SDS011;1809;48.470;9.226;2023-09-30T14:00:11;11.60;;;7.73;;
3589;SDS011;1809;48.470;9.226;2023-09-30T14:02:36;15.67;;;7.30;;
3589;SDS011;1809;48.470;9.226;2023-09-30T14:05:02;19.30;;;8.20;;
3589;SDS011;1809;48.470;9.226;2023-09-30T14:07:29;17.60;;;8.90;;
3589;SDS011;1809;48.470;9.226;2023-09-30T14:09:54;18.30;;;9.10;;
3589;SDS011;1809;48.470;9.226;2023-09-30T14:12:20;12.80;;;7.50;;
3589;SDS011;1809;48.470;9.226;2023-09-30T14:14:45;15.10;;;8.63;;
3589;SDS011;1809;48.470;9.226;2023-09-30T14:17:10;13.93;;;8.10;;
3589;SDS011;1809;48.470;9.226;2023-09-30T14:19:37;11.60;;;8.37;;
3589;SDS011;1809;48.470;9.226;2023-09-30T14:22:04;16.33;;;7.47;;
3589;SDS011;1809;48.470;9.226;2023-09-30T14:24:30;13.33;;;7.40;;
3589;SDS011;1809;48.470;9.226;2023-09-30T14:26:56;14.83;;;7.40;;
3589;SDS011;1809;48.470;9.226;2023-09-30T14:29:21;12.03;;;8.47;;
3589;SDS011;1809;48.470;9.226;2023-09-30T14:31:46;13.10;;;7.60;;
3589;SDS011;1809;48.470;9.226;2023-09-30T14:34:12;15.60;;;7.77;;
3589;SDS011;1809;48.470;9.226;2023-09-30T14:36:39;10.07;;;6.73;;
3589;SDS011;1809;48.470;9.226;2023-09-30T14:39:04;11.63;;;7.27;;
3589;SDS011;1809;48.470;9.226;2023-09-30T14:41:30;15.27;;;6.90;;
3589;SDS011;1809;48.470;9.226;2023-09-30T14:43:55;8.93;;;5.60;;
3589;SDS011;1809;48.470;9.226;2023-09-30T14:46:21;12.97;;;6.40;;
3589;SDS011;1809;48.470;9.226;2023-09-30T14:48:47;10.73;;;6.13;;
3589;SDS011;1809;48.470;9.226;2023-09-30T14:51:12;14.67;;;7.83;;
3589;SDS011;1809;48.470;9.226;2023-09-30T14:53:37;9.13;;;6.80;;
3589;SDS011;1809;48.470;9.226;2023-09-30T14:56:02;15.80;;;6.20;;
3589;SDS011;1809;48.470;9.226;2023-09-30T14:58:28;10.67;;;7.60;;
3589;SDS011;1809;48.470;9.226;2023-09-30T15:00:54;13.83;;;7.97;;
3589;SDS011;1809;48.470;9.226;2023-09-30T15:03:19;16.13;;;7.03;;
3589;SDS011;1809;48.470;9.226;2023-09-30T15:05:46;16.40;;;8.43;;
3589;SDS011;1809;48.470;9.226;2023-09-30T15:08:14;10.27;;;6.67;;
3589;SDS011;1809;48.470;9.226;2023-09-30T15:10:39;12.20;;;7.00;;
3589;SDS011;1809;48.470;9.226;2023-09-30T15:13:05;10.63;;;6.30;;
3589;SDS011;1809;48.470;9.226;2023-09-30T15:15:30;12.77;;;7.77;;
3589;SDS011;1809;48.470;9.226;2023-09-30T15:17:55;10.03;;;6.70;;
3589;SDS011;1809;48.470;9.226;2023-09-30T15:20:21;9.77;;;6.60;;
3589;SDS011;1809;48.470;9.226;2023-09-30T15:22:46;13.83;;;7.57;;
3589;SDS011;1809;48.470;9.226;2023-09-30T15:25:12;8.83;;;6.23;;
3589;SDS011;1809;48.470;9.226;2023-09-30T15:27:37;10.60;;;6.90;;
3589;SDS011;1809;48.470;9.226;2023-09-30T15:30:03;13.50;;;7.03;;
3589;SDS011;1809;48.470;9.226;2023-09-30T15:32:28;12.67;;;7.70;;